sensor_id;sensor_type;location;lat;lon;timestamp;temperature;humidity
4596;DHT22;2310;49.978;8.742;2022-12-18T00:03:51;-4.30;99.90
4596;DHT22;2310;49.978;8.742;2022-12-18T00:07:53;-4.20;99.90
4596;DHT22;2310;49.978;8.742;2022-12-18T00:11:54;-4.20;99.90
4596;DHT22;2310;49.978;8.742;2022-12-18T00:15:55;-4.20;99.90
4596;DHT22;2310;49.978;8.742;2022-12-18T00:19:58;-4.40;99.90
4596;DHT22;2310;49.978;8.742;2022-12-18T00:24:00;-4.70;99.90
4596;DHT22;2310;49.978;8.742;2022-12-18T00:28:03;-4.50;99.90
4596;DHT22;2310;49.978;8.742;2022-12-18T00:32:04;-4.40;99.90
4596;DHT22;2310;49.978;8.742;2022-12-18T00:36:09;-4.30;99.90
4596;DHT22;2310;49.978;8.742;2022-12-18T00:40:11;-4.10;99.90
4596;DHT22;2310;49.978;8.742;2022-12-18T00:44:15;-4.10;99.90
4596;DHT22;2310;49.978;8.742;2022-12-18T00:48:17;-4.00;99.90
4596;DHT22;2310;49.978;8.742;2022-12-18T00:52:18;-4.00;99.90
4596;DHT22;2310;49.978;8.742;2022-12-18T00:56:23;-3.90;99.90
4596;DHT22;2310;49.978;8.742;2022-12-18T01:00:24;-4.10;99.90
4596;DHT22;2310;49.978;8.742;2022-12-18T01:04:26;-4.20;99.90
4596;DHT22;2310;49.978;8.742;2022-12-18T01:08:27;-4.30;99.90
4596;DHT22;2310;49.978;8.742;2022-12-18T01:12:28;-4.30;99.90
4596;DHT22;2310;49.978;8.742;2022-12-18T01:16:29;-4.30;99.90
4596;DHT22;2310;49.978;8.742;2022-12-18T01:20:31;-4.30;99.90
4596;DHT22;2310;49.978;8.742;2022-12-18T01:24:32;-4.40;99.90
4596;DHT22;2310;49.978;8.742;2022-12-18T01:28:33;-4.50;99.90
4596;DHT22;2310;49.978;8.742;2022-12-18T01:32:35;-4.60;99.90
4596;DHT22;2310;49.978;8.742;2022-12-18T01:36:37;-4.80;99.90
4596;DHT22;2310;49.978;8.742;2022-12-18T01:40:40;-4.70;99.90
4596;DHT22;2310;49.978;8.742;2022-12-18T01:49:14;-4.60;99.90
4596;DHT22;2310;49.978;8.742;2022-12-18T01:53:19;-4.70;99.90
4596;DHT22;2310;49.978;8.742;2022-12-18T01:57:22;-4.40;99.90
4596;DHT22;2310;49.978;8.742;2022-12-18T02:01:25;-4.40;99.90
4596;DHT22;2310;49.978;8.742;2022-12-18T02:05:47;-4.40;99.90
4596;DHT22;2310;49.978;8.742;2022-12-18T02:10:00;-4.40;99.90
4596;DHT22;2310;49.978;8.742;2022-12-18T02:18:32;-4.70;99.90
4596;DHT22;2310;49.978;8.742;2022-12-18T02:22:40;-4.80;99.90
4596;DHT22;2310;49.978;8.742;2022-12-18T02:26:46;-4.80;99.90
4596;DHT22;2310;49.978;8.742;2022-12-18T02:30:50;-4.60;99.90
4596;DHT22;2310;49.978;8.742;2022-12-18T02:34:55;-4.60;99.90
4596;DHT22;2310;49.978;8.742;2022-12-18T02:38:58;-4.70;99.90
4596;DHT22;2310;49.978;8.742;2022-12-18T02:43:12;-4.70;99.90
4596;DHT22;2310;49.978;8.742;2022-12-18T02:47:16;-4.70;99.90
4596;DHT22;2310;49.978;8.742;2022-12-18T02:51:27;-4.70;99.90
4596;DHT22;2310;49.978;8.742;2022-12-18T02:59:41;-4.80;99.90
4596;DHT22;2310;49.978;8.742;2022-12-18T03:03:52;-4.70;99.90
4596;DHT22;2310;49.978;8.742;2022-12-18T03:08:02;-4.70;99.90
4596;DHT22;2310;49.978;8.742;2022-12-18T03:12:14;-4.70;99.90
4596;DHT22;2310;49.978;8.742;2022-12-18T03:16:27;-4.60;99.90
4596;DHT22;2310;49.978;8.742;2022-12-18T03:20:31;-4.60;99.90
4596;DHT22;2310;49.978;8.742;2022-12-18T03:24:35;-4.50;99.90
4596;DHT22;2310;49.978;8.742;2022-12-18T03:28:45;-4.50;99.90
4596;DHT22;2310;49.978;8.742;2022-12-18T03:33:18;-4.60;99.90
4596;DHT22;2310;49.978;8.742;2022-12-18T03:37:20;-4.50;99.90
4596;DHT22;2310;49.978;8.742;2022-12-18T03:41:33;-4.50;99.90
4596;DHT22;2310;49.978;8.742;2022-12-18T03:45:38;-4.40;99.90
4596;DHT22;2310;49.978;8.742;2022-12-18T03:50:00;-4.40;99.90
4596;DHT22;2310;49.978;8.742;2022-12-18T03:54:03;-4.30;99.90
4596;DHT22;2310;49.978;8.742;2022-12-18T03:58:07;-4.40;99.90
4596;DHT22;2310;49.978;8.742;2022-12-18T04:02:09;-4.40;99.90
4596;DHT22;2310;49.978;8.742;2022-12-18T04:06:11;-4.40;99.90
4596;DHT22;2310;49.978;8.742;2022-12-18T04:10:14;-4.50;99.90
4596;DHT22;2310;49.978;8.742;2022-12-18T04:14:15;-4.80;99.90
4596;DHT22;2310;49.978;8.742;2022-12-18T04:18:18;-4.80;99.90
4596;DHT22;2310;49.978;8.742;2022-12-18T04:22:20;-4.70;99.90
4596;DHT22;2310;49.978;8.742;2022-12-18T04:26:21;-4.50;99.90
4596;DHT22;2310;49.978;8.742;2022-12-18T04:30:22;-4.60;99.90
4596;DHT22;2310;49.978;8.742;2022-12-18T04:34:24;-4.50;99.90
4596;DHT22;2310;49.978;8.742;2022-12-18T04:38:25;-4.50;99.90
4596;DHT22;2310;49.978;8.742;2022-12-18T04:42:27;-4.70;99.90
4596;DHT22;2310;49.978;8.742;2022-12-18T04:46:28;-4.50;99.90
4596;DHT22;2310;49.978;8.742;2022-12-18T04:50:30;-4.50;99.90
4596;DHT22;2310;49.978;8.742;2022-12-18T04:54:31;-4.30;99.90
4596;DHT22;2310;49.978;8.742;2022-12-18T04:58:32;-4.30;99.90
4596;DHT22;2310;49.978;8.742;2022-12-18T05:02:33;-4.20;99.90
4596;DHT22;2310;49.978;8.742;2022-12-18T05:06:35;-4.30;99.90
4596;DHT22;2310;49.978;8.742;2022-12-18T05:10:36;-4.30;99.90
4596;DHT22;2310;49.978;8.742;2022-12-18T05:14:39;-4.30;99.90
4596;DHT22;2310;49.978;8.742;2022-12-18T05:18:40;-4.50;99.90
4596;DHT22;2310;49.978;8.742;2022-12-18T05:22:41;-4.60;99.90
4596;DHT22;2310;49.978;8.742;2022-12-18T05:26:42;-4.40;99.90
4596;DHT22;2310;49.978;8.742;2022-12-18T05:30:48;-4.40;99.90
4596;DHT22;2310;49.978;8.742;2022-12-18T05:34:50;-4.40;99.90
4596;DHT22;2310;49.978;8.742;2022-12-18T05:38:51;-4.10;99.90
4596;DHT22;2310;49.978;8.742;2022-12-18T05:42:53;-4.00;99.90
4596;DHT22;2310;49.978;8.742;2022-12-18T05:46:54;-4.00;99.90
4596;DHT22;2310;49.978;8.742;2022-12-18T05:51:13;-3.90;99.90
4596;DHT22;2310;49.978;8.742;2022-12-18T05:55:12;-3.90;99.90
4596;DHT22;2310;49.978;8.742;2022-12-18T05:59:13;-3.70;99.90
4596;DHT22;2310;49.978;8.742;2022-12-18T06:03:14;-4.00;99.90
4596;DHT22;2310;49.978;8.742;2022-12-18T06:07:16;-3.80;99.90
4596;DHT22;2310;49.978;8.742;2022-12-18T06:11:19;-3.80;99.90
4596;DHT22;2310;49.978;8.742;2022-12-18T06:15:21;-3.80;99.90
4596;DHT22;2310;49.978;8.742;2022-12-18T06:19:22;-3.90;99.90
4596;DHT22;2310;49.978;8.742;2022-12-18T06:23:23;-3.90;99.90
4596;DHT22;2310;49.978;8.742;2022-12-18T06:27:24;-4.00;99.90
4596;DHT22;2310;49.978;8.742;2022-12-18T06:31:26;-4.10;99.90
4596;DHT22;2310;49.978;8.742;2022-12-18T06:35:27;-4.10;99.90
4596;DHT22;2310;49.978;8.742;2022-12-18T06:39:29;-4.00;99.90
4596;DHT22;2310;49.978;8.742;2022-12-18T06:43:30;-4.10;99.90
4596;DHT22;2310;49.978;8.742;2022-12-18T06:47:31;-4.20;99.90
4596;DHT22;2310;49.978;8.742;2022-12-18T06:51:33;-4.20;99.90
4596;DHT22;2310;49.978;8.742;2022-12-18T06:55:34;-4.20;99.90
4596;DHT22;2310;49.978;8.742;2022-12-18T06:59:35;-4.20;99.90
4596;DHT22;2310;49.978;8.742;2022-12-18T07:03:42;-4.30;99.90
4596;DHT22;2310;49.978;8.742;2022-12-18T07:07:41;-4.10;99.90
4596;DHT22;2310;49.978;8.742;2022-12-18T07:11:42;-4.00;99.90
4596;DHT22;2310;49.978;8.742;2022-12-18T07:15:43;-3.90;99.90
4596;DHT22;2310;49.978;8.742;2022-12-18T07:19:45;-4.00;99.90
4596;DHT22;2310;49.978;8.742;2022-12-18T07:23:47;-4.00;99.90
4596;DHT22;2310;49.978;8.742;2022-12-18T07:27:48;-4.00;99.90
4596;DHT22;2310;49.978;8.742;2022-12-18T07:31:49;-3.90;99.90
4596;DHT22;2310;49.978;8.742;2022-12-18T07:35:51;-4.00;99.90
4596;DHT22;2310;49.978;8.742;2022-12-18T07:39:52;-4.00;99.90
4596;DHT22;2310;49.978;8.742;2022-12-18T07:43:53;-4.20;99.90
4596;DHT22;2310;49.978;8.742;2022-12-18T07:47:54;-4.00;99.90
4596;DHT22;2310;49.978;8.742;2022-12-18T07:51:56;-4.00;99.90
4596;DHT22;2310;49.978;8.742;2022-12-18T07:56:00;-4.00;99.90
4596;DHT22;2310;49.978;8.742;2022-12-18T08:00:05;-3.80;99.90
4596;DHT22;2310;49.978;8.742;2022-12-18T08:04:07;-3.80;99.90
4596;DHT22;2310;49.978;8.742;2022-12-18T08:08:08;-4.10;99.90
4596;DHT22;2310;49.978;8.742;2022-12-18T08:12:09;-4.30;99.90
4596;DHT22;2310;49.978;8.742;2022-12-18T08:16:10;-4.00;99.90
4596;DHT22;2310;49.978;8.742;2022-12-18T08:20:11;-3.90;99.90
4596;DHT22;2310;49.978;8.742;2022-12-18T08:24:14;-3.90;99.90
4596;DHT22;2310;49.978;8.742;2022-12-18T08:28:15;-4.00;99.90
4596;DHT22;2310;49.978;8.742;2022-12-18T08:32:16;-4.00;99.90
4596;DHT22;2310;49.978;8.742;2022-12-18T08:36:18;-3.90;99.90
4596;DHT22;2310;49.978;8.742;2022-12-18T08:40:20;-3.90;99.90
4596;DHT22;2310;49.978;8.742;2022-12-18T08:44:21;-4.00;99.90
4596;DHT22;2310;49.978;8.742;2022-12-18T08:48:40;-3.90;99.90
4596;DHT22;2310;49.978;8.742;2022-12-18T08:52:41;-3.80;99.90
4596;DHT22;2310;49.978;8.742;2022-12-18T08:56:42;-3.80;99.90
4596;DHT22;2310;49.978;8.742;2022-12-18T09:00:44;-3.50;99.90
4596;DHT22;2310;49.978;8.742;2022-12-18T09:04:48;-3.10;99.90
4596;DHT22;2310;49.978;8.742;2022-12-18T09:08:51;-2.90;99.90
4596;DHT22;2310;49.978;8.742;2022-12-18T09:12:53;-2.50;99.90
4596;DHT22;2310;49.978;8.742;2022-12-18T09:16:54;-2.30;99.90
4596;DHT22;2310;49.978;8.742;2022-12-18T09:20:55;-2.00;99.90
4596;DHT22;2310;49.978;8.742;2022-12-18T09:24:57;-0.60;99.90
4596;DHT22;2310;49.978;8.742;2022-12-18T09:28:58;-1.20;99.90
4596;DHT22;2310;49.978;8.742;2022-12-18T09:33:00;-1.80;99.90
4596;DHT22;2310;49.978;8.742;2022-12-18T09:37:01;-1.60;99.90
4596;DHT22;2310;49.978;8.742;2022-12-18T09:45:11;-1.40;99.90
4596;DHT22;2310;49.978;8.742;2022-12-18T09:49:16;-1.20;99.90
4596;DHT22;2310;49.978;8.742;2022-12-18T09:53:22;-1.30;99.90
4596;DHT22;2310;49.978;8.742;2022-12-18T09:57:24;-1.20;99.90
4596;DHT22;2310;49.978;8.742;2022-12-18T10:01:27;-1.00;99.90
4596;DHT22;2310;49.978;8.742;2022-12-18T10:06:10;-1.20;99.90
4596;DHT22;2310;49.978;8.742;2022-12-18T10:27:24;-1.70;99.90
4596;DHT22;2310;49.978;8.742;2022-12-18T10:31:27;-1.40;99.90
4596;DHT22;2310;49.978;8.742;2022-12-18T10:35:28;-1.50;99.90
4596;DHT22;2310;49.978;8.742;2022-12-18T10:39:30;-1.40;99.90
4596;DHT22;2310;49.978;8.742;2022-12-18T10:43:36;-1.60;99.90
4596;DHT22;2310;49.978;8.742;2022-12-18T10:47:47;-1.60;99.90
4596;DHT22;2310;49.978;8.742;2022-12-18T10:51:49;-1.80;99.90
4596;DHT22;2310;49.978;8.742;2022-12-18T10:55:54;-1.80;99.90
4596;DHT22;2310;49.978;8.742;2022-12-18T10:59:57;-1.70;99.90
4596;DHT22;2310;49.978;8.742;2022-12-18T11:04:02;-1.60;99.90
4596;DHT22;2310;49.978;8.742;2022-12-18T11:08:19;-1.70;99.90
4596;DHT22;2310;49.978;8.742;2022-12-18T11:12:17;-1.70;99.90
4596;DHT22;2310;49.978;8.742;2022-12-18T11:16:19;-1.50;99.90
4596;DHT22;2310;49.978;8.742;2022-12-18T11:20:27;-1.20;99.90
4596;DHT22;2310;49.978;8.742;2022-12-18T11:24:32;-1.40;99.90
4596;DHT22;2310;49.978;8.742;2022-12-18T11:32:48;-1.00;99.90
4596;DHT22;2310;49.978;8.742;2022-12-18T11:36:50;-1.00;99.90
4596;DHT22;2310;49.978;8.742;2022-12-18T11:40:56;-1.60;99.90
4596;DHT22;2310;49.978;8.742;2022-12-18T11:45:08;-1.90;99.90
4596;DHT22;2310;49.978;8.742;2022-12-18T11:49:19;-1.90;99.90
4596;DHT22;2310;49.978;8.742;2022-12-18T11:57:51;-1.50;99.90
4596;DHT22;2310;49.978;8.742;2022-12-18T12:01:55;-1.50;99.90
4596;DHT22;2310;49.978;8.742;2022-12-18T12:06:19;-1.70;99.90
4596;DHT22;2310;49.978;8.742;2022-12-18T12:18:55;-1.60;99.90
4596;DHT22;2310;49.978;8.742;2022-12-18T12:27:40;-1.70;99.90
4596;DHT22;2310;49.978;8.742;2022-12-18T12:35:52;-1.50;99.90
4596;DHT22;2310;49.978;8.742;2022-12-18T12:39:51;-1.50;99.90
4596;DHT22;2310;49.978;8.742;2022-12-18T12:43:56;-1.30;99.90
4596;DHT22;2310;49.978;8.742;2022-12-18T12:47:59;-1.00;99.90
4596;DHT22;2310;49.978;8.742;2022-12-18T12:56:38;-1.30;99.90
4596;DHT22;2310;49.978;8.742;2022-12-18T13:00:47;-1.50;99.90
4596;DHT22;2310;49.978;8.742;2022-12-18T13:04:52;-1.50;99.90
4596;DHT22;2310;49.978;8.742;2022-12-18T13:08:59;-1.50;99.90
4596;DHT22;2310;49.978;8.742;2022-12-18T13:21:31;-1.30;99.90
4596;DHT22;2310;49.978;8.742;2022-12-18T13:25:36;-1.30;99.90
4596;DHT22;2310;49.978;8.742;2022-12-18T13:29:43;-1.00;99.90
4596;DHT22;2310;49.978;8.742;2022-12-18T13:33:46;-1.00;99.90
4596;DHT22;2310;49.978;8.742;2022-12-18T13:37:54;-1.00;99.90
4596;DHT22;2310;49.978;8.742;2022-12-18T13:46:47;-0.80;99.90
4596;DHT22;2310;49.978;8.742;2022-12-18T13:50:57;-1.00;99.90
4596;DHT22;2310;49.978;8.742;2022-12-18T13:55:00;-0.90;99.90
4596;DHT22;2310;49.978;8.742;2022-12-18T14:03:22;-0.80;99.90
4596;DHT22;2310;49.978;8.742;2022-12-18T14:07:26;-0.70;99.90
4596;DHT22;2310;49.978;8.742;2022-12-18T14:11:30;-0.70;99.90
4596;DHT22;2310;49.978;8.742;2022-12-18T14:15:39;-0.80;99.90
4596;DHT22;2310;49.978;8.742;2022-12-18T14:19:44;-0.70;99.90
4596;DHT22;2310;49.978;8.742;2022-12-18T14:23:46;-0.50;99.90
4596;DHT22;2310;49.978;8.742;2022-12-18T14:28:12;-0.50;99.90
4596;DHT22;2310;49.978;8.742;2022-12-18T14:32:18;-0.50;99.90
4596;DHT22;2310;49.978;8.742;2022-12-18T14:36:25;-0.40;99.90
4596;DHT22;2310;49.978;8.742;2022-12-18T14:40:27;-0.50;99.90
4596;DHT22;2310;49.978;8.742;2022-12-18T14:44:28;-0.40;99.90
4596;DHT22;2310;49.978;8.742;2022-12-18T14:48:41;-0.40;99.90
4596;DHT22;2310;49.978;8.742;2022-12-18T14:52:43;-0.50;99.90
4596;DHT22;2310;49.978;8.742;2022-12-18T14:56:46;-0.50;99.90
4596;DHT22;2310;49.978;8.742;2022-12-18T15:00:48;-0.40;99.90
4596;DHT22;2310;49.978;8.742;2022-12-18T15:05:02;-0.50;99.90
4596;DHT22;2310;49.978;8.742;2022-12-18T15:09:24;-0.40;99.90
4596;DHT22;2310;49.978;8.742;2022-12-18T15:13:31;-0.40;99.90
4596;DHT22;2310;49.978;8.742;2022-12-18T15:17:36;-0.30;99.90
4596;DHT22;2310;49.978;8.742;2022-12-18T15:21:39;-0.30;99.90
4596;DHT22;2310;49.978;8.742;2022-12-18T15:25:43;-0.40;99.90
4596;DHT22;2310;49.978;8.742;2022-12-18T15:29:59;-0.30;99.90
4596;DHT22;2310;49.978;8.742;2022-12-18T15:37:57;-0.20;99.90
4596;DHT22;2310;49.978;8.742;2022-12-18T15:42:00;-0.30;99.90
4596;DHT22;2310;49.978;8.742;2022-12-18T15:46:24;-0.40;99.90
4596;DHT22;2310;49.978;8.742;2022-12-18T15:50:25;-0.30;99.90
4596;DHT22;2310;49.978;8.742;2022-12-18T15:54:31;-0.40;99.90
4596;DHT22;2310;49.978;8.742;2022-12-18T15:58:34;-0.50;99.90
4596;DHT22;2310;49.978;8.742;2022-12-18T16:02:36;-0.40;99.90
4596;DHT22;2310;49.978;8.742;2022-12-18T16:06:37;-0.40;99.90
4596;DHT22;2310;49.978;8.742;2022-12-18T16:10:40;-0.40;99.90
4596;DHT22;2310;49.978;8.742;2022-12-18T16:14:42;-0.40;99.90
4596;DHT22;2310;49.978;8.742;2022-12-18T16:18:43;-0.20;99.90
4596;DHT22;2310;49.978;8.742;2022-12-18T16:22:45;-0.20;99.90
4596;DHT22;2310;49.978;8.742;2022-12-18T16:26:48;-0.10;99.90
4596;DHT22;2310;49.978;8.742;2022-12-18T16:30:50;0.10;99.90
4596;DHT22;2310;49.978;8.742;2022-12-18T16:34:53;0.10;99.90
4596;DHT22;2310;49.978;8.742;2022-12-18T16:38:54;0.10;99.90
4596;DHT22;2310;49.978;8.742;2022-12-18T16:42:55;0.10;99.90
4596;DHT22;2310;49.978;8.742;2022-12-18T16:46:56;0.00;99.90
4596;DHT22;2310;49.978;8.742;2022-12-18T16:51:02;-0.20;99.90
4596;DHT22;2310;49.978;8.742;2022-12-18T16:55:04;-0.30;99.90
4596;DHT22;2310;49.978;8.742;2022-12-18T16:59:12;-0.40;99.90
4596;DHT22;2310;49.978;8.742;2022-12-18T17:03:29;-0.30;99.90
4596;DHT22;2310;49.978;8.742;2022-12-18T17:07:30;-0.10;99.90
4596;DHT22;2310;49.978;8.742;2022-12-18T17:11:33;-0.10;99.90
4596;DHT22;2310;49.978;8.742;2022-12-18T17:15:35;-0.10;99.90
4596;DHT22;2310;49.978;8.742;2022-12-18T17:19:40;-0.30;99.90
4596;DHT22;2310;49.978;8.742;2022-12-18T17:23:42;-0.40;99.90
4596;DHT22;2310;49.978;8.742;2022-12-18T17:27:44;-0.20;99.90
4596;DHT22;2310;49.978;8.742;2022-12-18T17:31:46;-0.20;99.90
4596;DHT22;2310;49.978;8.742;2022-12-18T17:35:47;-0.40;99.90
4596;DHT22;2310;49.978;8.742;2022-12-18T17:39:49;-0.50;99.90
4596;DHT22;2310;49.978;8.742;2022-12-18T17:43:51;-0.30;99.90
4596;DHT22;2310;49.978;8.742;2022-12-18T17:47:53;-0.40;99.90
4596;DHT22;2310;49.978;8.742;2022-12-18T17:51:56;-0.40;99.90
4596;DHT22;2310;49.978;8.742;2022-12-18T17:55:58;-0.50;99.90
4596;DHT22;2310;49.978;8.742;2022-12-18T18:00:06;-0.50;99.90
4596;DHT22;2310;49.978;8.742;2022-12-18T18:04:07;-0.60;99.90
4596;DHT22;2310;49.978;8.742;2022-12-18T18:08:09;-0.70;99.90
4596;DHT22;2310;49.978;8.742;2022-12-18T18:12:10;-0.60;99.90
4596;DHT22;2310;49.978;8.742;2022-12-18T18:16:36;-0.40;99.90
4596;DHT22;2310;49.978;8.742;2022-12-18T18:20:40;-0.50;99.90
4596;DHT22;2310;49.978;8.742;2022-12-18T18:24:42;-0.60;99.90
4596;DHT22;2310;49.978;8.742;2022-12-18T18:28:43;-0.60;99.90
4596;DHT22;2310;49.978;8.742;2022-12-18T18:32:45;-0.50;99.90
4596;DHT22;2310;49.978;8.742;2022-12-18T18:36:46;-0.50;99.90
4596;DHT22;2310;49.978;8.742;2022-12-18T18:40:47;-0.50;99.90
4596;DHT22;2310;49.978;8.742;2022-12-18T18:44:48;-0.30;99.90
4596;DHT22;2310;49.978;8.742;2022-12-18T18:48:50;-0.30;99.90
4596;DHT22;2310;49.978;8.742;2022-12-18T18:52:51;0.00;99.90
4596;DHT22;2310;49.978;8.742;2022-12-18T18:56:52;-0.10;99.90
4596;DHT22;2310;49.978;8.742;2022-12-18T19:01:00;0.10;99.90
4596;DHT22;2310;49.978;8.742;2022-12-18T19:05:02;0.00;99.90
4596;DHT22;2310;49.978;8.742;2022-12-18T19:09:10;-0.10;99.90
4596;DHT22;2310;49.978;8.742;2022-12-18T19:13:12;-0.30;99.90
4596;DHT22;2310;49.978;8.742;2022-12-18T19:17:25;-0.30;99.90
4596;DHT22;2310;49.978;8.742;2022-12-18T19:21:28;-0.20;99.90
4596;DHT22;2310;49.978;8.742;2022-12-18T19:25:31;-0.40;99.90
4596;DHT22;2310;49.978;8.742;2022-12-18T19:29:35;-0.30;99.90
4596;DHT22;2310;49.978;8.742;2022-12-18T19:33:40;-0.30;99.90
4596;DHT22;2310;49.978;8.742;2022-12-18T19:37:44;-0.10;99.90
4596;DHT22;2310;49.978;8.742;2022-12-18T19:41:46;0.00;99.90
4596;DHT22;2310;49.978;8.742;2022-12-18T19:45:53;0.00;99.90
4596;DHT22;2310;49.978;8.742;2022-12-18T19:49:52;0.10;99.90
4596;DHT22;2310;49.978;8.742;2022-12-18T19:53:55;0.20;99.90
4596;DHT22;2310;49.978;8.742;2022-12-18T19:57:58;0.00;99.90
4596;DHT22;2310;49.978;8.742;2022-12-18T20:01:59;0.00;99.90
4596;DHT22;2310;49.978;8.742;2022-12-18T20:06:26;0.00;99.90
4596;DHT22;2310;49.978;8.742;2022-12-18T20:10:28;0.00;99.90
4596;DHT22;2310;49.978;8.742;2022-12-18T20:14:29;0.10;99.90
4596;DHT22;2310;49.978;8.742;2022-12-18T20:18:30;0.10;99.90
4596;DHT22;2310;49.978;8.742;2022-12-18T20:22:32;0.30;99.90
4596;DHT22;2310;49.978;8.742;2022-12-18T20:26:33;0.30;99.90
4596;DHT22;2310;49.978;8.742;2022-12-18T20:30:34;0.40;99.90
4596;DHT22;2310;49.978;8.742;2022-12-18T20:34:35;0.50;99.90
4596;DHT22;2310;49.978;8.742;2022-12-18T20:38:38;0.30;99.90
4596;DHT22;2310;49.978;8.742;2022-12-18T20:42:40;0.20;99.90
4596;DHT22;2310;49.978;8.742;2022-12-18T20:46:41;0.30;99.90
4596;DHT22;2310;49.978;8.742;2022-12-18T20:50:43;0.30;99.90
4596;DHT22;2310;49.978;8.742;2022-12-18T20:54:45;0.30;99.90
4596;DHT22;2310;49.978;8.742;2022-12-18T20:58:49;0.50;99.90
4596;DHT22;2310;49.978;8.742;2022-12-18T21:03:00;0.40;99.90
4596;DHT22;2310;49.978;8.742;2022-12-18T21:07:03;0.50;99.90
4596;DHT22;2310;49.978;8.742;2022-12-18T21:15:41;0.20;99.90
4596;DHT22;2310;49.978;8.742;2022-12-18T21:19:42;0.30;99.90
4596;DHT22;2310;49.978;8.742;2022-12-18T21:23:43;0.40;99.90
4596;DHT22;2310;49.978;8.742;2022-12-18T21:27:44;0.40;99.90
4596;DHT22;2310;49.978;8.742;2022-12-18T21:31:46;0.40;99.90
4596;DHT22;2310;49.978;8.742;2022-12-18T21:35:48;0.40;99.90
4596;DHT22;2310;49.978;8.742;2022-12-18T21:39:49;0.40;99.90
4596;DHT22;2310;49.978;8.742;2022-12-18T21:43:50;0.60;99.90
4596;DHT22;2310;49.978;8.742;2022-12-18T21:48:06;0.50;99.90
4596;DHT22;2310;49.978;8.742;2022-12-18T21:52:08;0.60;99.90
4596;DHT22;2310;49.978;8.742;2022-12-18T21:56:09;0.50;99.90
4596;DHT22;2310;49.978;8.742;2022-12-18T22:00:13;0.30;99.90
4596;DHT22;2310;49.978;8.742;2022-12-18T22:04:18;0.20;99.90
4596;DHT22;2310;49.978;8.742;2022-12-18T22:08:19;0.30;99.90
4596;DHT22;2310;49.978;8.742;2022-12-18T22:12:21;0.50;99.90
4596;DHT22;2310;49.978;8.742;2022-12-18T22:16:40;0.50;99.90
4596;DHT22;2310;49.978;8.742;2022-12-18T22:20:42;0.40;99.90
4596;DHT22;2310;49.978;8.742;2022-12-18T22:24:44;0.30;99.90
4596;DHT22;2310;49.978;8.742;2022-12-18T22:28:45;0.30;99.90
4596;DHT22;2310;49.978;8.742;2022-12-18T22:33:05;0.20;99.90
4596;DHT22;2310;49.978;8.742;2022-12-18T22:37:06;0.40;99.90
4596;DHT22;2310;49.978;8.742;2022-12-18T22:41:07;0.50;99.90
4596;DHT22;2310;49.978;8.742;2022-12-18T22:45:09;0.40;99.90
4596;DHT22;2310;49.978;8.742;2022-12-18T22:49:15;0.50;99.90
4596;DHT22;2310;49.978;8.742;2022-12-18T22:53:17;0.40;99.90
4596;DHT22;2310;49.978;8.742;2022-12-18T22:57:18;0.60;99.90
4596;DHT22;2310;49.978;8.742;2022-12-18T23:01:22;0.60;99.90
4596;DHT22;2310;49.978;8.742;2022-12-18T23:05:24;0.60;99.90
4596;DHT22;2310;49.978;8.742;2022-12-18T23:09:25;0.40;99.90
4596;DHT22;2310;49.978;8.742;2022-12-18T23:13:27;0.40;99.90
4596;DHT22;2310;49.978;8.742;2022-12-18T23:17:28;0.30;99.90
4596;DHT22;2310;49.978;8.742;2022-12-18T23:21:30;0.20;99.90
4596;DHT22;2310;49.978;8.742;2022-12-18T23:25:32;0.30;99.90
4596;DHT22;2310;49.978;8.742;2022-12-18T23:29:34;0.60;99.90
4596;DHT22;2310;49.978;8.742;2022-12-18T23:33:36;0.50;99.90
4596;DHT22;2310;49.978;8.742;2022-12-18T23:37:37;0.60;99.90
4596;DHT22;2310;49.978;8.742;2022-12-18T23:41:40;0.70;99.90
4596;DHT22;2310;49.978;8.742;2022-12-18T23:45:41;0.90;99.90
4596;DHT22;2310;49.978;8.742;2022-12-18T23:49:42;0.70;99.90
4596;DHT22;2310;49.978;8.742;2022-12-18T23:53:45;0.90;99.90
4596;DHT22;2310;49.978;8.742;2022-12-18T23:57:46;0.90;99.90
